Time;durP1;ratioP1;P1;durP2;ratioP2;P2;SDS_P1;SDS_P2;PMS_P1;PMS_P2;Temp;Humidity;BMP_temperature;BMP_pressure;BME280_temperature;BME280_humidity;BME280_pressure;Samples;Min_cycle;Max_cycle;Signal;HPM_P1;HPM_P2
2022/08/21 00:00:38;;;;;;;3.83;1.87;;;;;;;18.54;68.05;99618.03;4918605;29;20320;-77
2022/08/21 00:03:06;;;;;;;2.17;1.60;;;;;;;18.56;67.56;99616.09;4921680;29;20273;-77
2022/08/21 00:05:35;;;;;;;2.00;1.80;;;;;;;18.53;67.70;99617.22;4919952;29;20485;-78
2022/08/21 00:08:01;;;;;;;3.03;1.70;;;;;;;18.51;68.01;99613.03;4918028;29;20493;-77
2022/08/21 00:10:27;;;;;;;1.73;1.50;;;;;;;18.51;67.68;99616.50;4919318;29;20469;-77
2022/08/21 00:12:53;;;;;;;2.03;1.40;;;;;;;18.54;67.60;99620.72;4921951;29;20965;-77
2022/08/21 00:15:23;;;;;;;3.17;1.87;;;;;;;18.56;67.54;99622.22;4921735;29;20212;-78
2022/08/21 00:17:48;;;;;;;2.47;2.30;;;;;;;18.57;67.49;99621.22;4919171;29;20310;-78
2022/08/21 00:20:15;;;;;;;3.70;1.90;;;;;;;18.56;67.43;99616.09;4922101;29;20536;-77
2022/08/21 00:22:41;;;;;;;3.67;1.60;;;;;;;18.55;67.57;99607.28;4921394;28;20921;-78
2022/08/21 00:25:08;;;;;;;6.03;2.33;;;;;;;18.51;67.53;99613.03;4926726;28;20468;-78
2022/08/21 00:27:33;;;;;;;3.53;2.20;;;;;;;18.49;67.62;99615.81;4921544;29;20457;-78
2022/08/21 00:29:59;;;;;;;3.40;1.90;;;;;;;18.50;67.48;99614.03;4920999;29;20826;-77
2022/08/21 00:32:26;;;;;;;3.03;1.83;;;;;;;18.59;67.53;99615.78;4919035;29;20489;-77
2022/08/21 00:34:53;;;;;;;7.27;2.10;;;;;;;18.60;67.30;99606.81;4919261;29;20366;-78
2022/08/21 00:37:19;;;;;;;2.77;1.77;;;;;;;18.60;67.31;99605.97;4919691;29;20461;-77
2022/08/21 00:39:44;;;;;;;2.07;1.80;;;;;;;18.55;67.19;99604.59;4917592;29;20457;-78
2022/08/21 00:42:14;;;;;;;2.87;1.90;;;;;;;18.49;67.22;99602.53;4921362;29;21082;-78
2022/08/21 00:44:42;;;;;;;5.13;2.33;;;;;;;18.42;67.50;99600.63;4918616;29;20381;-78
2022/08/21 00:47:08;;;;;;;2.77;2.20;;;;;;;18.35;67.94;99600.38;4903267;29;20502;-77
2022/08/21 00:49:33;;;;;;;2.40;1.80;;;;;;;18.28;67.90;99596.59;4940352;23;20510;-74
2022/08/21 00:52:22;;;;;;;3.57;1.83;;;;;;;18.19;68.14;99593.03;4940526;29;20234;-75
2022/08/21 00:54:53;;;;;;;2.60;1.80;;;;;;;18.12;68.15;99589.28;4942451;28;20211;-75
2022/08/21 00:57:28;;;;;;;1.87;1.73;;;;;;;18.11;68.18;99593.75;4940810;28;20463;-75
2022/08/21 00:59:58;;;;;;;2.60;1.77;;;;;;;18.12;68.02;99594.59;4943389;28;20829;-76
2022/08/21 01:02:25;;;;;;;4.17;1.90;;;;;;;18.12;68.05;99587.47;4944161;28;20440;-74
2022/08/21 01:04:52;;;;;;;4.20;1.80;;;;;;;18.14;68.01;99590.78;4945811;29;20448;-72
2022/08/21 01:07:17;;;;;;;2.37;1.70;;;;;;;18.15;68.12;99591.66;4940590;28;20458;-75
2022/08/21 01:09:46;;;;;;;2.63;2.43;;;;;;;18.14;68.01;99585.47;4944396;29;21091;-73
2022/08/21 01:12:12;;;;;;;3.17;2.30;;;;;;;18.13;67.87;99585.63;4946028;29;20280;-75
2022/08/21 01:14:45;;;;;;;5.00;1.80;;;;;;;18.12;68.27;99590.13;4944276;29;20449;-76
2022/08/21 01:17:15;;;;;;;2.70;2.00;;;;;;;18.12;68.05;99594.59;4943004;28;20471;-75
2022/08/21 01:20:03;;;;;;;2.80;1.70;;;;;;;18.10;68.22;99592.09;4947133;28;20538;-76
2022/08/21 01:22:33;;;;;;;1.93;1.80;;;;;;;18.09;68.09;99594.88;4943564;28;20534;-76
2022/08/21 01:25:01;;;;;;;1.90;1.73;;;;;;;18.06;68.04;99595.16;4943773;28;20619;-73
2022/08/21 01:27:27;;;;;;;1.93;1.83;;;;;;;18.02;68.12;99597.28;4940172;28;20459;-76
2022/08/21 01:30:12;;;;;;;1.90;1.70;;;;;;;18.02;68.14;99599.13;4943561;28;20484;-76
2022/08/21 01:32:48;;;;;;;4.60;2.10;;;;;;;18.02;68.17;99601.78;4942376;29;20464;-75
2022/08/21 01:35:19;;;;;;;1.90;1.50;;;;;;;18.03;68.13;99585.66;4926620;29;20824;-76
2022/08/21 01:37:54;;;;;;;3.40;1.77;;;;;;;18.03;68.29;99584.84;4934489;28;21013;-74
2022/08/21 01:40:21;;;;;;;2.67;1.60;;;;;;;18.01;68.35;99584.13;4926263;29;20460;-74
2022/08/21 01:42:48;;;;;;;1.80;1.70;;;;;;;17.97;68.44;99580.94;4946111;28;20544;-76
2022/08/21 01:45:16;;;;;;;3.10;2.13;;;;;;;17.97;68.28;99583.59;4947387;29;20452;-77
2022/08/21 01:47:44;;;;;;;2.00;1.80;;;;;;;17.96;68.14;99589.03;4931153;28;20679;-73
2022/08/21 01:50:14;;;;;;;2.20;1.63;;;;;;;17.96;68.07;99587.25;4927301;29;20500;-73
2022/08/21 01:52:40;;;;;;;2.43;2.20;;;;;;;17.97;68.19;99588.09;4943579;29;20460;-76
2022/08/21 01:55:09;;;;;;;3.50;1.93;;;;;;;17.97;68.17;99590.75;4941801;28;20467;-73
2022/08/21 01:57:35;;;;;;;4.27;1.90;;;;;;;17.94;68.21;99583.06;4930603;29;20825;-74
2022/08/21 02:00:04;;;;;;;4.23;2.33;;;;;;;17.85;68.38;99582.94;4929212;29;20501;-74
2022/08/21 02:02:38;;;;;;;3.15;2.20;;;;;;;17.82;68.40;99582.38;4939297;29;20578;-75
2022/08/21 02:05:04;;;;;;;3.50;1.87;;;;;;;17.77;68.74;99574.84;4942602;29;20280;-74
2022/08/21 02:07:39;;;;;;;2.60;2.03;;;;;;;17.73;68.55;99578.75;4942981;29;20479;-75
2022/08/21 02:10:07;;;;;;;2.10;1.90;;;;;;;17.66;68.69;99581.16;4940393;29;20681;-76
2022/08/21 02:12:34;;;;;;;2.33;2.13;;;;;;;17.62;68.61;99577.09;4942420;28;20447;-74
2022/08/21 02:15:00;;;;;;;4.00;1.73;;;;;;;17.60;68.69;99578.22;4925582;29;21014;-75
2022/08/21 02:17:26;;;;;;;2.30;1.73;;;;;;;17.60;68.47;99580.88;4941409;29;20462;-76
2022/08/21 02:19:52;;;;;;;3.53;1.93;;;;;;;17.57;68.42;99575.84;4937526;29;20570;-73
2022/08/21 02:22:17;;;;;;;2.43;1.90;;;;;;;17.56;68.43;99575.03;4935637;29;20468;-74
2022/08/21 02:24:43;;;;;;;2.17;1.70;;;;;;;17.56;68.25;99575.03;4933732;29;20215;-75
2022/08/21 02:27:09;;;;;;;3.50;2.57;;;;;;;17.56;68.15;99577.69;4936473;29;20206;-74
2022/08/21 02:29:34;;;;;;;3.57;2.60;;;;;;;17.59;68.12;99568.59;4933385;29;20483;-74
2022/08/21 02:31:59;;;;;;;2.57;2.37;;;;;;;17.59;68.02;99574.72;4939157;29;20223;-74
2022/08/21 02:34:25;;;;;;;3.57;2.80;;;;;;;17.57;68.21;99567.88;4941892;29;20284;-74
2022/08/21 02:36:50;;;;;;;1.90;1.50;;;;;;;17.53;68.28;99566.50;4940406;29;20214;-76
2022/08/21 02:39:16;;;;;;;2.23;1.80;;;;;;;17.51;68.28;99565.81;4937441;29;20218;-74
2022/08/21 02:41:41;;;;;;;2.50;1.60;;;;;;;17.49;68.23;99555.31;4941366;29;20560;-76
2022/08/21 02:44:07;;;;;;;2.37;2.00;;;;;;;17.48;68.47;99564.28;4938515;29;20232;-74
2022/08/21 02:46:32;;;;;;;3.03;2.30;;;;;;;17.41;68.50;99556.03;4939946;29;20212;-75
2022/08/21 02:48:57;;;;;;;2.10;1.90;;;;;;;17.35;68.71;99567.22;4938557;29;20267;-75
2022/08/21 02:51:23;;;;;;;3.03;2.00;;;;;;;17.31;68.85;99559.69;4941032;29;20232;-75
2022/08/21 02:54:01;;;;;;;3.93;1.83;;;;;;;17.26;69.14;99557.47;4943025;29;20208;-75
2022/08/21 02:56:26;;;;;;;3.17;2.90;;;;;;;17.22;69.17;99556.91;4941460;29;20197;-74
2022/08/21 02:58:52;;;;;;;2.33;2.13;;;;;;;17.20;69.27;99563.31;4939807;29;20770;-76
2022/08/21 03:01:19;;;;;;;2.60;1.95;;;;;;;17.19;69.43;99559.84;4939122;29;20930;-74
2022/08/21 03:03:49;;;;;;;2.70;2.50;;;;;;;17.15;69.45;99555.81;4941310;29;20214;-75
2022/08/21 03:06:16;;;;;;;2.53;2.33;;;;;;;17.10;69.72;99557.22;4941257;29;20552;-75
2022/08/21 03:08:44;;;;;;;3.70;2.30;;;;;;;17.10;70.35;99549.25;4936943;29;20427;-74
2022/08/21 03:11:11;;;;;;;3.10;2.45;;;;;;;17.13;70.36;99556.91;4938245;29;20500;-75
2022/08/21 03:13:36;;;;;;;3.70;2.33;;;;;;;17.08;70.38;99561.81;4939848;29;20271;-74
2022/08/21 03:16:03;;;;;;;2.83;1.90;;;;;;;17.05;70.40;99554.97;4941380;29;21120;-74
2022/08/21 03:18:29;;;;;;;4.60;2.55;;;;;;;17.00;70.19;99552.72;4940047;29;20188;-75
2022/08/21 03:20:55;;;;;;;3.20;2.13;;;;;;;16.98;70.27;99565.28;4948382;28;20351;-75
2022/08/21 03:23:21;;;;;;;2.47;2.27;;;;;;;16.96;70.00;99569.09;4962083;28;20466;-74
2022/08/21 03:25:48;;;;;;;2.50;2.23;;;;;;;16.94;70.18;99565.72;4962163;28;20227;-75
2022/08/21 03:28:21;;;;;;;2.40;1.80;;;;;;;16.94;70.16;99560.41;4964221;28;20293;-74
2022/08/21 03:30:49;;;;;;;3.00;2.50;;;;;;;16.90;70.19;99559.84;4961158;28;20843;-73
2022/08/21 03:33:16;;;;;;;1.75;1.48;;;;;;;16.85;70.09;99553.28;4963044;28;20180;-75
2022/08/21 03:35:52;;;;;;;4.55;1.90;;;;;;;16.79;70.15;99560.81;4960765;28;20885;-76
2022/08/21 03:38:17;;;;;;;2.75;2.45;;;;;;;16.74;70.31;99564.81;4957356;28;20286;-75
2022/08/21 03:40:48;;;;;;;2.37;2.17;;;;;;;16.69;70.42;99561.75;4961186;28;20326;-74
2022/08/21 03:43:14;;;;;;;2.88;2.10;;;;;;;16.59;70.61;99554.63;4964242;28;20194;-74
2022/08/21 03:45:40;;;;;;;2.70;2.17;;;;;;;16.51;70.85;99556.28;4962831;28;20211;-75
2022/08/21 03:48:07;;;;;;;3.53;2.23;;;;;;;16.45;70.91;99562.97;4963350;28;20923;-74
2022/08/21 03:50:38;;;;;;;3.42;2.08;;;;;;;16.40;71.02;99551.94;4960131;28;21125;-76
2022/08/21 03:53:04;;;;;;;2.60;1.98;;;;;;;16.41;70.91;99558.06;4960408;28;20578;-76
2022/08/21 03:55:29;;;;;;;4.27;2.50;;;;;;;16.38;70.99;99561.84;4964161;28;20194;-74
2022/08/21 03:57:55;;;;;;;3.40;2.17;;;;;;;16.38;70.98;99552.06;4964031;28;20554;-75
2022/08/21 04:00:25;;;;;;;4.18;2.05;;;;;;;16.40;71.07;99557.25;4960530;28;20263;-75
2022/08/21 04:02:51;;;;;;;4.50;2.28;;;;;;;16.40;71.30;99559.91;4960302;28;20311;-74
2022/08/21 04:05:26;;;;;;;9.48;2.00;;;;;;;16.42;71.02;99562.41;4964332;28;20184;-76
2022/08/21 04:08:04;;;;;;;3.15;2.13;;;;;;;16.41;70.99;99558.06;4952788;28;20204;-74
2022/08/21 04:10:32;;;;;;;2.55;2.30;;;;;;;16.40;71.02;99567.84;4961641;28;20197;-76
2022/08/21 04:12:58;;;;;;;2.85;2.05;;;;;;;16.38;71.09;99567.16;4960669;28;20195;-74
2022/08/21 04:15:26;;;;;;;3.60;2.53;;;;;;;16.35;71.05;99573.56;4963450;28;20192;-74
2022/08/21 04:17:52;;;;;;;6.07;2.30;;;;;;;16.37;71.04;99570.78;4962920;28;20245;-75
2022/08/21 04:20:21;;;;;;;3.85;2.17;;;;;;;16.34;70.91;99574.53;4960620;28;20211;-75
2022/08/21 04:22:51;;;;;;;4.65;2.47;;;;;;;16.34;70.98;99571.06;4944461;28;20280;-73
2022/08/21 04:25:43;;;;;;;3.80;2.40;;;;;;;16.37;71.31;99568.13;4959688;28;20420;-75
2022/08/21 04:28:07;;;;;;;6.68;2.88;;;;;;;16.40;71.33;99578.47;4961687;28;20520;-74
2022/08/21 04:30:36;;;;;;;4.47;2.50;;;;;;;16.42;70.98;99581.81;4959035;28;20566;-74
2022/08/21 04:33:03;;;;;;;5.57;3.10;;;;;;;16.45;71.15;99578.88;4961831;28;20421;-75
2022/08/21 04:35:30;;;;;;;3.80;2.78;;;;;;;16.49;70.92;99580.28;4958254;28;20475;-74
2022/08/21 04:37:57;;;;;;;3.70;2.70;;;;;;;16.52;70.43;99590.59;4960703;28;20409;-74
2022/08/21 04:40:26;;;;;;;5.20;3.05;;;;;;;16.54;70.07;99593.97;4957299;28;20454;-75
2022/08/21 04:42:55;;;;;;;3.70;2.30;;;;;;;16.56;70.43;99597.34;4959871;28;20408;-75
2022/08/21 04:45:34;;;;;;;3.10;2.80;;;;;;;16.59;70.57;99586.44;4956466;28;20415;-73
2022/08/21 04:48:02;;;;;;;5.32;3.13;;;;;;;16.62;70.30;99595.94;4953683;28;20462;-75
2022/08/21 04:50:45;;;;;;;3.08;2.80;;;;;;;16.64;69.91;99593.16;4957467;28;20423;-75
2022/08/21 04:57:03;;;;;;;3.20;2.50;;;;;;;16.68;69.61;99586.59;4959581;28;20442;-74
2022/08/21 04:59:37;;;;;;;4.78;3.30;;;;;;;16.65;69.43;99593.00;4958831;28;20424;-76
2022/08/21 05:02:05;;;;;;;4.28;2.75;;;;;;;16.65;69.65;99586.88;4961125;28;20412;-77
2022/08/21 05:04:33;;;;;;;3.63;2.67;;;;;;;16.70;69.71;99587.31;4961104;28;20404;-74
2022/08/21 05:07:03;;;;;;;5.20;3.03;;;;;;;16.77;69.59;99593.78;4958344;28;20420;-75
2022/08/21 05:09:30;;;;;;;3.85;2.70;;;;;;;16.80;69.01;99598.81;4959717;28;20427;-77
2022/08/21 05:11:55;;;;;;;3.13;2.75;;;;;;;16.83;68.75;99600.34;4957606;28;20416;-77
2022/08/21 05:14:21;;;;;;;2.73;2.50;;;;;;;16.89;68.76;99603.28;4960538;28;20939;-74
2022/08/21 05:16:47;;;;;;;3.33;2.50;;;;;;;17.06;68.49;99608.88;4958627;28;21231;-77
2022/08/21 05:19:12;;;;;;;3.90;2.60;;;;;;;17.27;67.66;99600.78;4961190;28;20427;-74
2022/08/21 05:21:41;;;;;;;3.40;3.07;;;;;;;17.34;67.45;99599.25;4958349;28;20787;-77
2022/08/21 05:24:07;;;;;;;4.23;2.60;;;;;;;17.38;67.24;99604.13;4958930;28;20563;-77
2022/08/21 05:26:33;;;;;;;4.10;3.40;;;;;;;17.37;66.96;99605.09;4959474;28;20446;-77
2022/08/21 05:28:58;;;;;;;4.80;2.70;;;;;;;17.36;67.00;99605.22;4960032;28;20470;-76
2022/08/21 05:31:24;;;;;;;3.93;3.37;;;;;;;17.35;66.83;99601.75;4960359;28;20600;-75
2022/08/21 05:33:50;;;;;;;2.73;2.07;;;;;;;17.37;66.80;99602.44;4959652;28;20262;-74
2022/08/21 05:36:17;;;;;;;2.90;2.20;;;;;;;17.39;66.80;99589.88;4960233;28;20189;-76
2022/08/21 05:38:43;;;;;;;3.38;2.30;;;;;;;17.42;66.62;99600.22;4960325;28;20653;-74
2022/08/21 05:41:09;;;;;;;3.47;2.97;;;;;;;17.44;66.76;99600.91;4958916;28;20202;-74
2022/08/21 05:43:36;;;;;;;5.60;2.33;;;;;;;17.43;66.79;99596.56;4959257;28;20532;-75
2022/08/21 05:46:03;;;;;;;2.83;2.63;;;;;;;17.45;66.85;99596.44;4962416;28;20522;-76
2022/08/21 05:48:28;;;;;;;3.30;2.88;;;;;;;17.70;66.42;99595.81;4956552;28;20215;-76
2022/08/21 05:50:54;;;;;;;4.93;2.40;;;;;;;18.13;65.14;99593.63;4961222;28;20305;-75
2022/08/21 05:53:22;;;;;;;5.57;3.10;;;;;;;18.52;64.03;99588.94;4960555;28;20191;-74
2022/08/21 05:55:48;;;;;;;5.33;2.73;;;;;;;18.79;63.28;99590.78;4957192;28;20266;-74
2022/08/21 05:58:15;;;;;;;6.80;2.90;;;;;;;19.00;62.34;99586.97;4959997;28;20840;-77
2022/08/21 06:00:41;;;;;;;3.77;2.73;;;;;;;19.16;61.90;99595.09;4959602;28;20450;-74
2022/08/21 06:03:21;;;;;;;13.33;3.30;;;;;;;19.20;61.73;99591.16;4959373;28;20470;-75
2022/08/21 06:05:47;;;;;;;3.50;3.20;;;;;;;19.13;61.53;99589.25;4960362;28;20426;-75
2022/08/21 06:08:16;;;;;;;5.67;2.57;;;;;;;19.06;61.73;99596.16;4953591;28;20502;-74
2022/08/21 06:10:43;;;;;;;4.40;2.90;;;;;;;18.96;62.11;99591.75;4959156;28;20217;-76
2022/08/21 06:13:10;;;;;;;3.50;2.53;;;;;;;18.88;62.04;99588.19;4958742;28;20393;-76
2022/08/21 06:15:35;;;;;;;4.40;3.30;;;;;;;18.89;62.34;99593.34;4958845;28;20410;-74
2022/08/21 06:18:01;;;;;;;5.40;2.60;;;;;;;19.14;61.47;99585.56;4959638;28;20409;-75
2022/08/21 06:20:26;;;;;;;3.80;3.50;;;;;;;19.73;60.43;99580.56;4956994;28;20770;-74
2022/08/21 06:22:52;;;;;;;4.23;2.60;;;;;;;20.24;58.39;99577.00;4961800;28;20208;-74
2022/08/21 06:25:18;;;;;;;3.83;2.83;;;;;;;20.49;57.51;99585.06;4960255;28;20259;-75
2022/08/21 06:27:43;;;;;;;3.93;3.00;;;;;;;20.49;57.46;99585.91;4959854;28;20680;-74
2022/08/21 06:30:09;;;;;;;3.20;2.80;;;;;;;20.42;57.60;99582.25;4964084;28;20511;-74
2022/08/21 06:32:35;;;;;;;3.80;3.03;;;;;;;20.56;57.33;99575.47;4965653;28;20205;-74
2022/08/21 06:35:00;;;;;;;5.60;2.20;;;;;;;20.80;57.08;99582.69;4962051;28;20444;-74
2022/08/21 06:37:25;;;;;;;3.70;2.53;;;;;;;21.19;56.06;99582.06;4963598;28;20212;-75
2022/08/21 06:39:51;;;;;;;3.73;2.90;;;;;;;21.69;55.04;99575.72;4962970;28;20259;-74
2022/08/21 06:42:17;;;;;;;5.87;3.20;;;;;;;22.35;53.44;99568.34;4963466;28;20288;-76
2022/08/21 06:44:44;;;;;;;5.33;2.70;;;;;;;23.01;51.51;99571.50;4944694;28;20565;-74
2022/08/21 06:47:09;;;;;;;3.60;2.70;;;;;;;23.55;50.08;99567.84;4965065;28;20471;-74
2022/08/21 06:49:36;;;;;;;6.00;3.00;;;;;;;24.11;48.98;99572.81;4963991;28;20539;-74
2022/08/21 06:52:01;;;;;;;5.23;2.57;;;;;;;24.58;47.80;99563.50;5078270;23;20261;-77
2022/08/21 06:54:27;;;;;;;4.67;2.80;;;;;;;24.87;46.78;99567.94;4979240;28;20554;-77
2022/08/21 06:56:52;;;;;;;6.20;2.70;;;;;;;25.10;46.01;99565.91;4980473;28;20210;-79
2022/08/21 06:59:18;;;;;;;5.77;3.03;;;;;;;25.12;45.72;99574.59;4990427;28;20268;-77
2022/08/21 07:01:44;;;;;;;6.50;3.40;;;;;;;24.82;46.24;99568.53;4993616;28;20209;-78
2022/08/21 07:04:09;;;;;;;4.27;2.97;;;;;;;24.40;46.96;99569.25;4970476;28;20266;-78
2022/08/21 07:06:35;;;;;;;4.20;3.00;;;;;;;23.83;48.14;99563.56;4992209;28;20205;-77
2022/08/21 07:09:01;;;;;;;3.20;2.70;;;;;;;23.35;48.82;99576.38;4991948;28;20223;-78
2022/08/21 07:11:27;;;;;;;5.03;2.83;;;;;;;22.95;49.44;99574.84;4992580;28;20282;-77
2022/08/21 07:13:53;;;;;;;8.20;2.90;;;;;;;22.63;50.19;99579.41;4989644;28;20467;-78
2022/08/21 07:16:20;;;;;;;3.07;2.73;;;;;;;22.51;50.81;99572.78;4991991;28;20204;-77
2022/08/21 07:18:55;;;;;;;3.60;2.60;;;;;;;22.74;50.13;99576.31;4996558;28;20462;-80
2022/08/21 07:21:47;;;;;;;3.37;3.17;;;;;;;22.93;50.00;99572.34;5001987;28;20549;-80
2022/08/21 07:24:18;;;;;;;5.43;2.23;;;;;;;23.07;49.42;99568.09;4997007;28;20567;-79
2022/08/21 07:26:43;;;;;;;4.73;2.80;;;;;;;23.42;48.85;99571.16;4999883;28;20598;-78
2022/08/21 07:29:09;;;;;;;4.37;2.83;;;;;;;24.02;47.61;99575.59;4980474;28;20225;-79
2022/08/21 07:31:34;;;;;;;3.47;2.70;;;;;;;24.74;46.09;99571.34;4994973;28;20318;-78
2022/08/21 07:34:00;;;;;;;4.43;3.20;;;;;;;25.38;45.00;99559.75;4992863;28;20629;-79
2022/08/21 07:36:25;;;;;;;2.90;2.50;;;;;;;25.96;43.59;99559.56;4991978;28;20208;-78
2022/08/21 07:38:51;;;;;;;2.27;2.07;;;;;;;26.35;42.69;99564.28;4995642;28;20288;-79
2022/08/21 07:41:20;;;;;;;2.30;1.93;;;;;;;26.44;42.85;99563.09;4997203;28;20220;-79
2022/08/21 07:43:46;;;;;;;4.40;2.70;;;;;;;26.54;42.39;99557.34;4996328;28;20286;-78
2022/08/21 07:46:12;;;;;;;5.37;2.97;;;;;;;26.51;41.82;99556.88;4995912;28;20512;-79
2022/08/21 07:48:37;;;;;;;7.13;3.57;;;;;;;26.37;41.49;99543.38;4995561;28;20272;-79
2022/08/21 07:51:07;;;;;;;3.73;2.67;;;;;;;26.44;41.68;99554.19;4996804;28;20823;-79
2022/08/21 07:53:34;;;;;;;2.70;2.37;;;;;;;26.76;41.12;99552.66;4992184;28;20224;-78
2022/08/21 07:55:59;;;;;;;3.80;3.20;;;;;;;27.20;40.46;99551.28;4993341;28;20575;-79
2022/08/21 07:58:25;;;;;;;5.77;2.47;;;;;;;27.57;39.34;99540.84;4995038;28;20475;-80
2022/08/21 08:00:50;;;;;;;6.33;2.60;;;;;;;27.87;38.79;99541.28;4995991;28;20213;-79
2022/08/21 08:03:16;;;;;;;4.03;2.77;;;;;;;28.09;38.36;99549.09;4994642;28;20209;-81
2022/08/21 08:05:42;;;;;;;4.20;2.67;;;;;;;28.26;38.48;99542.16;4997013;28;20221;-79
2022/08/21 08:08:07;;;;;;;3.03;2.53;;;;;;;28.58;37.42;99534.97;4995855;28;20230;-79
2022/08/21 08:10:33;;;;;;;3.20;2.47;;;;;;;28.85;36.98;99538.34;4995858;28;20555;-80
2022/08/21 08:12:58;;;;;;;3.67;2.50;;;;;;;28.88;35.91;99532.47;4993889;28;21044;-79
2022/08/21 08:15:26;;;;;;;5.63;2.40;;;;;;;28.92;35.74;99532.88;4995928;28;20334;-80
2022/08/21 08:17:52;;;;;;;5.50;2.50;;;;;;;29.01;35.37;99531.56;4996183;28;20201;-79
2022/08/21 08:20:18;;;;;;;3.50;2.30;;;;;;;29.22;35.19;99521.44;4992157;28;20477;-79
2022/08/21 08:22:45;;;;;;;6.53;2.67;;;;;;;29.61;34.30;99520.25;4993711;28;20464;-80
2022/08/21 08:25:12;;;;;;;2.87;2.10;;;;;;;29.93;33.58;99518.25;4993877;28;20543;-80
2022/08/21 08:27:39;;;;;;;3.77;2.47;;;;;;;30.16;33.53;99514.88;4994661;28;20510;-80
2022/08/21 08:30:06;;;;;;;3.73;3.10;;;;;;;30.34;32.97;99502.34;4992674;28;20484;-80
2022/08/21 08:32:32;;;;;;;3.10;2.40;;;;;;;30.50;32.90;99511.72;4994252;28;21060;-80
2022/08/21 08:34:58;;;;;;;5.23;2.60;;;;;;;30.40;32.68;99507.66;4991435;28;20531;-81
2022/08/21 08:37:23;;;;;;;3.13;2.70;;;;;;;30.13;33.05;99504.47;4995627;28;20240;-79
2022/08/21 08:39:49;;;;;;;2.83;1.97;;;;;;;30.12;33.12;99505.53;4991700;28;20574;-80
2022/08/21 08:42:19;;;;;;;8.67;2.87;;;;;;;30.21;32.81;99506.84;4992548;28;20332;-78
2022/08/21 08:44:46;;;;;;;2.97;2.50;;;;;;;30.15;33.16;99507.78;4992524;28;20273;-79
2022/08/21 08:47:17;;;;;;;3.63;2.20;;;;;;;29.95;33.01;99501.78;4993928;28;20467;-79
2022/08/21 08:49:56;;;;;;;6.03;2.90;;;;;;;29.75;33.53;99502.81;4993987;28;20987;-79
2022/08/21 08:52:26;;;;;;;3.63;2.10;;;;;;;29.42;34.16;99499.63;4994084;28;20920;-79
2022/08/21 08:55:03;;;;;;;2.57;2.37;;;;;;;29.20;34.77;99494.63;4992363;28;20472;-79
2022/08/21 08:57:30;;;;;;;7.87;2.73;;;;;;;28.86;35.58;99491.31;4991531;28;20502;-79
2022/08/21 08:59:59;;;;;;;4.43;2.00;;;;;;;28.63;35.85;99489.19;4990897;28;20452;-81
2022/08/21 09:02:27;;;;;;;3.77;2.60;;;;;;;28.43;36.24;99496.59;4990386;28;21165;-79
2022/08/21 09:04:53;;;;;;;2.20;2.10;;;;;;;28.28;36.83;99490.63;4991627;28;20532;-81
2022/08/21 09:07:48;;;;;;;5.90;4.33;;;;;;;28.15;36.89;99495.06;4994609;28;20575;-81
2022/08/21 09:10:30;;;;;;;5.60;3.20;;;;;;;28.06;37.20;99493.66;4988810;28;21165;-81
2022/08/21 09:13:07;;;;;;;3.77;2.80;;;;;;;27.94;37.65;99482.66;4990901;28;20963;-80
2022/08/21 09:15:52;;;;;;;3.70;2.37;;;;;;;27.87;38.21;99478.34;4993760;28;20550;-81
2022/08/21 09:18:35;;;;;;;3.47;2.90;;;;;;;27.81;37.48;99480.00;4995690;28;20548;-80
2022/08/21 09:21:09;;;;;;;6.00;3.50;;;;;;;27.73;37.79;99481.06;4976275;28;21271;-81
2022/08/21 09:24:02;;;;;;;4.50;2.97;;;;;;;27.67;38.05;99475.69;4993269;28;20483;-81
2022/08/21 09:26:44;;;;;;;4.73;2.80;;;;;;;27.64;38.39;99468.00;4997050;28;20475;-80
2022/08/21 09:29:11;;;;;;;4.57;3.03;;;;;;;27.61;38.07;99463.03;4993463;28;20516;-81
2022/08/21 09:31:37;;;;;;;3.93;2.83;;;;;;;27.71;38.20;99461.56;4993944;28;20471;-81
2022/08/21 09:34:09;;;;;;;4.37;3.10;;;;;;;27.75;37.28;99454.69;4994125;28;20464;-81
2022/08/21 09:36:40;;;;;;;6.70;3.30;;;;;;;27.68;37.50;99458.44;4994365;28;20545;-80
2022/08/21 09:39:07;;;;;;;4.67;2.60;;;;;;;27.72;36.88;99454.28;4990927;28;20492;-80
2022/08/21 09:41:35;;;;;;;4.83;3.17;;;;;;;27.80;37.18;99460.28;4991863;28;21082;-80
2022/08/21 09:44:02;;;;;;;5.03;2.90;;;;;;;27.86;37.10;99453.22;4990543;28;20466;-80
2022/08/21 09:46:28;;;;;;;4.00;2.43;;;;;;;27.94;36.65;99444.88;4991539;28;20511;-80
2022/08/21 09:48:56;;;;;;;3.50;3.03;;;;;;;28.02;36.41;99455.44;4993359;28;20526;-80
2022/08/21 09:51:35;;;;;;;2.80;2.50;;;;;;;28.02;35.93;99447.31;4992904;28;20228;-80
2022/08/21 09:54:06;;;;;;;3.10;2.67;;;;;;;28.01;35.68;99442.16;4994393;28;20474;-80
2022/08/21 09:59:37;;;;;;;7.93;2.67;;;;;;;28.26;34.99;99453.03;4988530;28;20452;-80
2022/08/21 10:02:22;;;;;;;4.03;2.93;;;;;;;28.32;35.38;99435.94;4990100;28;20591;-77
2022/08/21 10:04:53;;;;;;;7.93;2.90;;;;;;;28.47;35.24;99433.00;4986748;28;20539;-81
2022/08/21 10:07:22;;;;;;;3.53;2.53;;;;;;;28.62;35.14;99428.06;4991779;28;20456;-80
2022/08/21 10:10:03;;;;;;;4.40;3.13;;;;;;;28.71;35.13;99425.94;4987057;28;20480;-80
2022/08/21 10:12:38;;;;;;;4.20;2.80;;;;;;;28.61;35.15;99423.72;4992460;28;20471;-80
2022/08/21 10:15:04;;;;;;;4.97;2.73;;;;;;;28.59;35.05;99422.28;4992708;28;20470;-80
2022/08/21 10:18:00;;;;;;;6.23;3.60;;;;;;;28.59;35.00;99420.41;4990177;28;20556;-80
2022/08/21 10:20:43;;;;;;;3.23;2.50;;;;;;;28.67;34.68;99416.63;4973010;28;20597;-81
2022/08/21 10:23:42;;;;;;;4.23;2.90;;;;;;;28.83;34.34;99416.06;4986684;28;20696;-81
2022/08/21 10:26:43;;;;;;;6.10;2.80;;;;;;;28.89;34.06;99409.78;4990167;28;20533;-81
2022/08/21 10:29:28;;;;;;;4.43;2.73;;;;;;;28.99;33.98;99406.56;4977970;28;20480;-81
2022/08/21 10:32:15;;;;;;;2.90;2.63;;;;;;;29.06;33.48;99404.66;4985230;28;20470;-80
2022/08/21 10:35:06;;;;;;;3.10;2.60;;;;;;;29.13;33.17;99396.47;4991443;28;21273;-80
2022/08/21 10:37:44;;;;;;;4.20;2.30;;;;;;;29.22;33.36;99397.00;4993122;28;20263;-81
2022/08/21 10:40:25;;;;;;;2.50;2.30;;;;;;;29.31;33.19;99396.50;4994378;28;20452;-81
2022/08/21 10:43:01;;;;;;;5.07;2.33;;;;;;;29.37;32.97;99405.59;4992013;28;20566;-81
2022/08/21 10:45:56;;;;;;;2.80;2.17;;;;;;;29.36;32.72;99403.94;4995878;28;20459;-81
2022/08/21 10:48:29;;;;;;;3.57;1.90;;;;;;;29.42;32.32;99402.22;4997457;28;20486;-81
2022/08/21 10:51:33;;;;;;;5.63;2.57;;;;;;;29.47;31.97;99405.88;5003594;28;20579;-81
2022/08/21 10:54:10;;;;;;;2.20;2.00;;;;;;;29.43;31.58;99401.16;4974007;28;20498;-81
2022/08/21 10:56:40;;;;;;;1.53;1.43;;;;;;;29.39;31.18;99408.91;4989339;28;20464;-81
2022/08/21 10:59:22;;;;;;;5.00;2.10;;;;;;;29.29;31.11;99395.88;4996021;28;20602;-81
2022/08/21 11:01:58;;;;;;;2.20;2.00;;;;;;;29.35;31.44;99396.84;4986402;28;20498;-81
2022/08/21 11:04:31;;;;;;;5.47;1.93;;;;;;;29.39;31.37;99394.53;4989650;28;20448;-82
2022/08/21 11:07:03;;;;;;;3.00;1.50;;;;;;;29.45;31.32;99397.16;4990031;28;20506;-81
2022/08/21 11:09:29;;;;;;;3.47;1.50;;;;;;;29.42;31.40;99391.38;4988497;28;21229;-81
2022/08/21 11:12:26;;;;;;;4.23;2.03;;;;;;;29.46;31.04;99392.56;4986715;28;20499;-81
2022/08/21 11:14:58;;;;;;;2.30;1.50;;;;;;;29.45;31.54;99382.81;4966995;28;21001;-81
2022/08/21 11:17:32;;;;;;;3.23;2.20;;;;;;;29.41;31.42;99381.59;4982464;28;20447;-81
2022/08/21 11:20:26;;;;;;;2.40;1.77;;;;;;;29.48;31.57;99379.66;4990826;28;20452;-81
2022/08/21 11:23:06;;;;;;;2.10;1.50;;;;;;;29.47;31.67;99378.00;4993676;28;20476;-81
2022/08/21 11:25:36;;;;;;;3.30;1.73;;;;;;;29.38;31.67;99382.06;4992511;28;21190;-80
2022/08/21 11:28:06;;;;;;;2.17;1.60;;;;;;;29.28;31.52;99378.00;4988809;28;20480;-81
2022/08/21 11:30:47;;;;;;;2.70;1.90;;;;;;;29.22;31.91;99375.34;4988369;28;20509;-80
2022/08/21 11:33:38;;;;;;;3.17;1.63;;;;;;;29.23;31.86;99379.72;4990193;28;20449;-80
2022/08/21 11:36:10;;;;;;;5.40;2.07;;;;;;;29.18;31.89;99366.88;5000105;28;20871;-80
2022/08/21 11:38:35;;;;;;;3.00;1.47;;;;;;;29.14;31.95;99365.69;4995439;28;20449;-81
2022/08/21 11:41:12;;;;;;;3.73;1.83;;;;;;;29.05;32.00;99370.53;4983863;28;20848;-80
2022/08/21 11:43:45;;;;;;;2.90;1.40;;;;;;;29.03;32.01;99369.06;4985814;28;20274;-80
2022/08/21 11:46:39;;;;;;;2.37;1.47;;;;;;;28.85;32.07;99369.91;4987854;28;20452;-81
2022/08/21 11:49:19;;;;;;;2.80;1.63;;;;;;;28.77;32.41;99367.47;4985502;28;20499;-80
2022/08/21 11:52:07;;;;;;;1.90;1.60;;;;;;;28.66;32.27;99359.03;4984519;28;21283;-80
2022/08/21 11:54:43;;;;;;;3.30;2.30;;;;;;;28.61;32.41;99347.25;4992743;28;20576;-80